createdAt,value
2022-12-18T00:02:03.735Z,67.93
2022-12-18T00:04:30.609Z,66.47
2022-12-18T00:06:57.339Z,64.80
2022-12-18T00:09:25.263Z,64.25
2022-12-18T00:12:23.395Z,62.35
2022-12-18T00:14:53.584Z,64.03
2022-12-18T00:20:13.146Z,65.43
2022-12-18T00:22:44.833Z,65.30
2022-12-18T00:25:22.089Z,63.80
2022-12-18T00:27:52.110Z,62.95
2022-12-18T00:30:26.259Z,63.28
2022-12-18T00:32:59.533Z,61.92
2022-12-18T00:35:43.662Z,63.03
2022-12-18T00:38:29.296Z,61.33
2022-12-18T00:41:19.993Z,59.70
2022-12-18T00:44:03.325Z,57.17
2022-12-18T00:46:45.200Z,59.55
2022-12-18T00:49:19.738Z,58.58
2022-12-18T00:52:09.577Z,57.80
2022-12-18T00:54:59.666Z,60.78
2022-12-18T00:57:44.474Z,59.35
2022-12-18T01:00:28.840Z,56.28
2022-12-18T01:03:03.016Z,56.03
2022-12-18T01:05:52.174Z,57.03
2022-12-18T01:08:41.284Z,54.03
2022-12-18T01:11:29.439Z,52.60
2022-12-18T01:14:25.421Z,53.95
2022-12-18T01:17:16.048Z,51.47
2022-12-18T01:19:58.468Z,54.72
2022-12-18T01:25:37.686Z,51.08
2022-12-18T01:28:05.719Z,54.22
2022-12-18T01:31:11.328Z,51.92
2022-12-18T01:34:11.341Z,49.42
2022-12-18T01:37:13.141Z,51.45
2022-12-18T01:39:56.401Z,53.35
2022-12-18T01:42:40.840Z,51.78
2022-12-18T01:45:36.344Z,51.55
2022-12-18T01:48:22.153Z,52.72
2022-12-18T01:51:10.069Z,51.72
2022-12-18T01:53:55.631Z,50.72
2022-12-18T01:56:40.878Z,50.97
2022-12-18T01:59:17.467Z,50.22
2022-12-18T02:01:49.786Z,49.70
2022-12-18T02:04:34.519Z,48.50
2022-12-18T02:07:20.819Z,47.47
2022-12-18T02:10:03.209Z,46.42
2022-12-18T02:12:46.783Z,45.80
2022-12-18T02:15:40.490Z,44.35
2022-12-18T02:18:29.832Z,44.92
2022-12-18T02:21:20.524Z,42.28
2022-12-18T02:24:18.486Z,41.55
2022-12-18T02:27:08.633Z,39.53
2022-12-18T02:30:14.539Z,39.70
2022-12-18T02:32:59.033Z,37.70
2022-12-18T02:35:41.169Z,36.22
2022-12-18T02:38:25.854Z,35.97
2022-12-18T02:47:00.753Z,36.40
2022-12-18T02:49:38.288Z,36.38
2022-12-18T02:52:28.625Z,35.05
2022-12-18T02:55:31.672Z,34.05
2022-12-18T02:58:24.776Z,33.47
2022-12-18T03:01:14.205Z,34.22
2022-12-18T03:04:16.757Z,33.75
2022-12-18T03:07:03.679Z,34.15
2022-12-18T03:09:39.280Z,33.88
2022-12-18T03:12:17.804Z,33.10
2022-12-18T03:14:59.347Z,32.95
2022-12-18T03:17:56.449Z,34.42
2022-12-18T03:20:37.551Z,33.97
2022-12-18T03:23:18.407Z,31.52
2022-12-18T03:25:56.277Z,32.45
2022-12-18T03:29:04.959Z,33.38
2022-12-18T03:31:54.659Z,33.00
2022-12-18T03:37:16.903Z,31.95
2022-12-18T03:40:14.404Z,34.03
2022-12-18T03:43:04.064Z,33.17
2022-12-18T03:45:57.768Z,32.90
2022-12-18T03:48:45.437Z,34.33
2022-12-18T03:51:26.494Z,32.35
2022-12-18T03:57:03.341Z,32.78
2022-12-18T03:59:40.772Z,34.08
2022-12-18T04:02:36.319Z,33.78
2022-12-18T04:05:12.081Z,31.58
2022-12-18T04:10:53.545Z,32.95
2022-12-18T04:13:32.622Z,33.55
2022-12-18T04:16:24.160Z,33.78
2022-12-18T04:19:08.558Z,36.00
2022-12-18T04:22:10.341Z,34.40
2022-12-18T04:24:50.380Z,33.92
2022-12-18T04:27:26.800Z,34.33
2022-12-18T04:30:04.479Z,35.20
2022-12-18T04:32:57.680Z,34.45
2022-12-18T04:35:38.873Z,35.67
2022-12-18T04:38:21.571Z,34.13
2022-12-18T04:41:10.772Z,33.80
2022-12-18T04:44:03.151Z,35.22
2022-12-18T04:46:44.308Z,35.75
2022-12-18T04:49:33.467Z,35.78
2022-12-18T04:55:27.241Z,35.75
2022-12-18T04:58:10.227Z,36.72
2022-12-18T05:00:48.408Z,35.22
2022-12-18T05:03:24.199Z,34.70
2022-12-18T05:09:17.075Z,37.50
2022-12-18T05:12:24.854Z,36.67
2022-12-18T05:15:15.364Z,36.17
2022-12-18T05:21:05.811Z,36.53
2022-12-18T05:23:51.566Z,34.65
2022-12-18T05:29:14.078Z,36.05
2022-12-18T05:32:09.175Z,36.05
2022-12-18T05:34:50.552Z,35.22
2022-12-18T05:37:27.634Z,37.40
2022-12-18T05:40:32.359Z,37.53
2022-12-18T05:43:21.628Z,38.72
2022-12-18T05:45:54.350Z,39.20
2022-12-18T05:48:33.574Z,38.45
2022-12-18T05:51:16.430Z,39.40
2022-12-18T05:56:35.346Z,58.47
2022-12-18T05:59:22.044Z,43.28
2022-12-18T06:02:00.756Z,42.28
2022-12-18T06:04:46.822Z,40.83
2022-12-18T06:07:26.450Z,39.85
2022-12-18T06:12:54.936Z,41.47
2022-12-18T06:15:35.476Z,43.15
2022-12-18T06:18:12.801Z,41.97
2022-12-18T06:21:04.310Z,42.97
2022-12-18T06:23:43.208Z,43.00
2022-12-18T06:26:17.107Z,43.22
2022-12-18T06:34:36.755Z,43.72
2022-12-18T06:37:30.654Z,44.70
2022-12-18T06:40:07.095Z,44.42
2022-12-18T06:42:45.300Z,42.08
2022-12-18T06:45:38.617Z,40.35
2022-12-18T06:48:33.794Z,41.80
2022-12-18T06:51:36.045Z,41.30
2022-12-18T06:54:29.940Z,40.70
2022-12-18T06:56:56.545Z,40.72
2022-12-18T06:59:23.132Z,40.80
2022-12-18T07:01:49.814Z,39.80
2022-12-18T07:04:16.599Z,42.28
2022-12-18T07:06:43.149Z,42.05
2022-12-18T07:09:09.738Z,41.15
2022-12-18T07:11:37.705Z,39.40
2022-12-18T07:14:04.290Z,40.53
2022-12-18T07:16:31.003Z,40.25
2022-12-18T07:18:57.836Z,39.38
2022-12-18T07:21:25.852Z,39.88
2022-12-18T07:23:55.682Z,40.63
2022-12-18T07:26:24.202Z,39.17
2022-12-18T07:28:58.170Z,40.75
2022-12-18T07:31:25.895Z,39.00
2022-12-18T07:33:53.116Z,39.17
2022-12-18T07:36:20.135Z,40.30
2022-12-18T07:38:47.987Z,38.67
2022-12-18T07:41:15.058Z,39.08
2022-12-18T07:43:42.973Z,39.58
2022-12-18T07:46:13.364Z,39.63
2022-12-18T07:48:40.310Z,38.80
2022-12-18T07:51:09.145Z,40.10
2022-12-18T07:53:37.406Z,40.20
2022-12-18T07:56:26.432Z,40.95
2022-12-18T07:58:53.700Z,37.83
2022-12-18T08:01:21.808Z,38.90
2022-12-18T08:03:50.147Z,35.50
2022-12-18T08:06:21.834Z,34.40
2022-12-18T08:08:52.520Z,33.33
2022-12-18T08:11:19.154Z,35.38
2022-12-18T08:13:46.401Z,36.10
2022-12-18T08:16:13.069Z,35.38
2022-12-18T08:18:41.144Z,36.58
2022-12-18T08:21:11.238Z,36.35
2022-12-18T08:23:42.387Z,35.80
2022-12-18T08:26:10.572Z,39.95
2022-12-18T08:28:37.176Z,36.22
2022-12-18T08:31:03.887Z,37.50
2022-12-18T08:33:30.542Z,37.25
2022-12-18T08:35:59.359Z,37.70
2022-12-18T08:47:04.660Z,37.80
2022-12-18T08:49:38.432Z,37.70
2022-12-18T08:52:35.084Z,37.83
2022-12-18T08:55:01.684Z,37.38
2022-12-18T08:57:28.295Z,36.75
2022-12-18T08:59:55.035Z,36.03
2022-12-18T09:02:28.354Z,36.45
2022-12-18T09:04:57.597Z,35.97
2022-12-18T09:07:35.829Z,35.28
2022-12-18T09:10:02.452Z,35.67
2022-12-18T09:12:38.140Z,34.97
2022-12-18T09:15:05.932Z,34.92
2022-12-18T09:17:41.862Z,34.70
2022-12-18T09:20:09.906Z,32.90
2022-12-18T09:22:38.033Z,35.72
2022-12-18T09:25:05.700Z,38.22
2022-12-18T09:27:45.820Z,36.75
2022-12-18T09:30:12.906Z,38.92
2022-12-18T09:33:04.882Z,39.85
2022-12-18T09:39:08.070Z,38.63
2022-12-18T09:41:59.064Z,38.15
2022-12-18T09:44:28.927Z,36.10
2022-12-18T09:47:10.273Z,37.08
2022-12-18T09:49:42.824Z,35.42
2022-12-18T09:52:13.884Z,36.40
2022-12-18T09:54:49.613Z,37.28
2022-12-18T09:57:19.793Z,37.95
2022-12-18T09:59:52.575Z,38.03
2022-12-18T10:02:20.982Z,37.78
2022-12-18T10:04:58.122Z,36.38
2022-12-18T10:07:34.468Z,37.85
2022-12-18T10:10:08.128Z,35.25
2022-12-18T10:12:45.871Z,34.55
2022-12-18T10:15:20.976Z,35.55
2022-12-18T10:17:56.342Z,36.35
2022-12-18T10:20:28.682Z,35.35
2022-12-18T10:23:04.740Z,33.00
2022-12-18T10:25:41.453Z,33.45
2022-12-18T10:28:13.205Z,33.30
2022-12-18T10:30:42.445Z,33.17
2022-12-18T10:33:12.838Z,30.90
2022-12-18T10:35:42.450Z,32.05
2022-12-18T10:40:53.065Z,27.90
2022-12-18T10:43:25.610Z,25.63
2022-12-18T10:46:21.263Z,24.52
2022-12-18T10:48:55.942Z,26.25
2022-12-18T10:51:25.458Z,26.10
2022-12-18T10:53:56.537Z,24.85
2022-12-18T10:56:26.139Z,23.17
2022-12-18T11:01:23.366Z,22.92
2022-12-18T11:04:02.962Z,22.98
2022-12-18T11:09:02.024Z,22.10
2022-12-18T11:11:32.273Z,22.38
2022-12-18T11:14:03.587Z,20.85
2022-12-18T11:16:34.217Z,21.90
2022-12-18T11:19:33.288Z,22.52
2022-12-18T11:22:04.385Z,22.83
2022-12-18T11:25:02.231Z,22.00
2022-12-18T11:27:38.091Z,21.75
2022-12-18T11:30:15.991Z,20.98
2022-12-18T11:33:08.675Z,21.75
2022-12-18T11:35:45.486Z,20.42
2022-12-18T11:38:24.867Z,21.13
2022-12-18T11:41:01.675Z,21.27
2022-12-18T11:43:50.507Z,21.27
2022-12-18T11:46:25.877Z,21.20
2022-12-18T11:49:12.837Z,20.70
2022-12-18T11:51:50.047Z,20.80
2022-12-18T11:54:24.485Z,21.05
2022-12-18T11:56:56.489Z,20.90
2022-12-18T11:59:37.642Z,20.42
2022-12-18T12:02:24.467Z,22.17
2022-12-18T12:05:24.549Z,21.77
2022-12-18T12:08:10.167Z,40.63
2022-12-18T12:10:50.376Z,43.22
2022-12-18T12:13:33.882Z,43.30
2022-12-18T12:16:18.767Z,42.65
2022-12-18T12:19:15.397Z,43.08
2022-12-18T12:21:55.898Z,42.05
2022-12-18T12:24:47.273Z,46.05
2022-12-18T12:27:41.516Z,45.47
2022-12-18T12:30:16.709Z,43.22
2022-12-18T12:33:17.541Z,45.15
2022-12-18T12:36:01.479Z,43.83
2022-12-18T12:38:38.861Z,45.22
2022-12-18T12:41:16.836Z,41.28
2022-12-18T12:43:50.857Z,43.63
2022-12-18T12:46:30.187Z,41.17
2022-12-18T12:49:02.458Z,39.22
2022-12-18T12:51:33.706Z,39.08
2022-12-18T12:54:02.583Z,36.90
2022-12-18T12:56:40.831Z,38.33
2022-12-18T12:59:14.870Z,36.67
2022-12-18T13:01:56.788Z,35.25
2022-12-18T13:04:40.275Z,33.88
2022-12-18T13:07:13.648Z,35.10
2022-12-18T13:10:25.702Z,33.67
2022-12-18T13:13:24.324Z,34.78
2022-12-18T13:18:57.604Z,32.13
2022-12-18T13:21:29.683Z,31.17
2022-12-18T13:24:17.354Z,32.28
2022-12-18T13:27:08.989Z,29.50
2022-12-18T13:29:46.917Z,31.45
2022-12-18T13:32:28.146Z,31.48
2022-12-18T13:35:33.608Z,30.05
2022-12-18T13:38:25.269Z,29.33
2022-12-18T13:41:08.261Z,29.10
2022-12-18T13:43:47.626Z,28.73
2022-12-18T13:46:26.999Z,28.60
2022-12-18T13:49:11.577Z,33.70
2022-12-18T13:51:50.385Z,36.45
2022-12-18T13:54:35.278Z,34.30
2022-12-18T13:57:34.059Z,34.67
2022-12-18T14:00:26.067Z,35.60
2022-12-18T14:02:55.890Z,36.95
2022-12-18T14:05:32.060Z,37.88
2022-12-18T14:08:06.918Z,37.30
2022-12-18T14:10:58.270Z,37.38
2022-12-18T14:13:37.519Z,36.85
2022-12-18T14:16:12.252Z,36.85
2022-12-18T14:18:51.710Z,35.90
2022-12-18T14:21:25.076Z,36.20
2022-12-18T14:24:15.177Z,34.33
2022-12-18T14:26:50.703Z,35.10
2022-12-18T14:29:30.251Z,36.38
2022-12-18T14:32:19.291Z,34.65
2022-12-18T14:34:51.306Z,34.25
2022-12-18T14:37:21.711Z,34.83
2022-12-18T14:40:11.400Z,35.30
2022-12-18T14:42:46.867Z,35.20
2022-12-18T14:45:46.240Z,36.65
2022-12-18T14:48:22.873Z,34.85
2022-12-18T14:51:08.569Z,36.10
2022-12-18T14:53:49.155Z,35.65
2022-12-18T14:56:29.248Z,35.65
2022-12-18T14:59:10.873Z,34.15
2022-12-18T15:02:00.298Z,34.67
2022-12-18T15:04:40.051Z,34.63
2022-12-18T15:07:27.150Z,37.05
2022-12-18T15:10:14.654Z,38.17
2022-12-18T15:12:46.051Z,38.83
2022-12-18T15:15:57.446Z,36.75
2022-12-18T15:18:45.461Z,36.67
2022-12-18T15:21:23.988Z,35.80
2022-12-18T15:24:02.912Z,35.08
2022-12-18T15:26:41.791Z,37.35
2022-12-18T15:29:22.999Z,36.95
2022-12-18T15:32:02.034Z,37.13
2022-12-18T15:34:35.559Z,38.63
2022-12-18T15:37:04.577Z,36.88
2022-12-18T15:39:31.437Z,42.97
2022-12-18T15:42:01.814Z,47.22
2022-12-18T15:44:28.774Z,43.17
2022-12-18T15:46:56.547Z,43.45
2022-12-18T15:49:23.563Z,45.42
2022-12-18T15:51:54.658Z,42.25
2022-12-18T15:54:25.029Z,42.22
2022-12-18T15:56:55.917Z,45.60
2022-12-18T15:59:24.267Z,44.40
2022-12-18T16:01:54.676Z,46.00
2022-12-18T16:04:22.698Z,46.63
2022-12-18T16:09:48.564Z,45.45
2022-12-18T16:12:18.336Z,45.60
2022-12-18T16:14:45.377Z,50.22
2022-12-18T16:17:14.538Z,53.42
2022-12-18T16:19:45.114Z,54.67
2022-12-18T16:22:22.550Z,55.17
2022-12-18T16:24:49.538Z,53.55
2022-12-18T16:27:16.265Z,51.85
2022-12-18T16:29:46.077Z,52.53
2022-12-18T16:32:16.355Z,50.78
2022-12-18T16:34:51.758Z,51.00
2022-12-18T16:37:21.328Z,55.33
2022-12-18T16:39:54.025Z,53.78
2022-12-18T16:42:23.284Z,60.55
2022-12-18T16:44:53.422Z,60.83
2022-12-18T16:47:21.395Z,58.67
2022-12-18T16:49:50.802Z,59.58
2022-12-18T16:52:24.974Z,61.65
2022-12-18T16:54:54.033Z,70.82
2022-12-18T16:57:24.679Z,69.82
2022-12-18T16:59:53.753Z,71.40
2022-12-18T17:02:23.692Z,73.97
2022-12-18T17:04:54.564Z,86.78
2022-12-18T17:07:26.136Z,86.93
2022-12-18T17:09:55.623Z,83.30
2022-12-18T17:12:25.455Z,79.25
2022-12-18T17:14:56.488Z,80.72
2022-12-18T17:17:25.690Z,80.68
2022-12-18T17:19:55.319Z,75.97
2022-12-18T17:22:25.778Z,74.03
2022-12-18T17:24:58.160Z,72.43
2022-12-18T17:27:27.838Z,71.10
2022-12-18T17:32:34.470Z,72.93
2022-12-18T17:35:06.780Z,71.72
2022-12-18T17:37:43.704Z,68.75
2022-12-18T17:40:11.324Z,69.18
2022-12-18T17:42:47.631Z,68.47
2022-12-18T17:45:18.143Z,67.47
2022-12-18T17:47:47.363Z,67.15
2022-12-18T17:50:16.390Z,69.20
2022-12-18T17:52:46.895Z,68.85
2022-12-18T17:55:13.623Z,70.15
2022-12-18T17:57:45.652Z,73.95
2022-12-18T18:00:20.772Z,78.28
2022-12-18T18:02:53.278Z,77.72
2022-12-18T18:05:24.319Z,77.88
2022-12-18T18:08:00.106Z,76.22
2022-12-18T18:10:27.863Z,77.15
2022-12-18T18:12:54.535Z,76.88
2022-12-18T18:15:23.144Z,78.25
2022-12-18T18:17:49.813Z,84.13
2022-12-18T18:20:22.265Z,80.70
2022-12-18T18:22:49.317Z,80.40
2022-12-18T18:25:17.667Z,79.55
2022-12-18T18:27:45.143Z,78.93
2022-12-18T18:30:14.397Z,77.75
2022-12-18T18:32:41.094Z,75.38
2022-12-18T18:35:19.345Z,78.65
2022-12-18T18:37:55.386Z,75.43
2022-12-18T18:40:23.383Z,74.45
2022-12-18T18:42:54.879Z,77.50
2022-12-18T18:45:21.503Z,76.75
2022-12-18T18:47:48.124Z,76.38
2022-12-18T18:50:14.755Z,75.97
2022-12-18T18:52:41.621Z,76.18
2022-12-18T18:55:13.562Z,80.00
2022-12-18T18:57:48.188Z,79.28
2022-12-18T19:00:16.611Z,75.78
2022-12-18T19:02:43.532Z,76.50
2022-12-18T19:05:10.412Z,73.90
2022-12-18T19:07:37.065Z,80.20
2022-12-18T19:10:05.518Z,73.28
2022-12-18T19:12:33.333Z,71.45
2022-12-18T19:15:01.577Z,72.75
2022-12-18T19:17:30.726Z,76.57
2022-12-18T19:19:58.280Z,75.13
2022-12-18T19:22:27.496Z,75.72
2022-12-18T19:24:54.232Z,73.97
2022-12-18T19:27:21.211Z,77.55
2022-12-18T19:29:48.914Z,73.20
2022-12-18T19:32:16.984Z,73.82
2022-12-18T19:34:47.881Z,73.05
2022-12-18T19:37:15.162Z,72.78
2022-12-18T19:39:41.907Z,72.63
2022-12-18T19:42:08.760Z,70.55
2022-12-18T19:44:35.489Z,69.65
2022-12-18T19:47:02.252Z,71.22
2022-12-18T19:49:30.290Z,72.63
2022-12-18T19:51:56.902Z,70.43
2022-12-18T19:54:24.825Z,67.30
2022-12-18T19:56:53.027Z,69.13
2022-12-18T19:59:19.855Z,70.25
2022-12-18T20:01:46.585Z,78.32
2022-12-18T20:04:13.634Z,71.70
2022-12-18T20:06:48.450Z,69.35
2022-12-18T20:09:15.742Z,70.15
2022-12-18T20:11:43.320Z,69.68
2022-12-18T20:14:10.289Z,70.78
2022-12-18T20:16:37.099Z,69.10
2022-12-18T20:19:04.918Z,65.75
2022-12-18T20:21:31.653Z,66.30
2022-12-18T20:23:59.783Z,67.25
2022-12-18T20:26:26.556Z,67.53
2022-12-18T20:28:54.184Z,71.28
2022-12-18T20:31:21.013Z,66.53
2022-12-18T20:33:48.599Z,66.72
2022-12-18T20:36:19.229Z,67.43
2022-12-18T20:38:49.000Z,67.50
2022-12-18T20:41:20.041Z,69.65
2022-12-18T20:43:47.303Z,70.20
2022-12-18T20:46:15.737Z,67.25
2022-12-18T20:48:43.205Z,69.40
2022-12-18T20:51:11.701Z,68.03
2022-12-18T20:53:41.703Z,71.90
2022-12-18T20:56:10.414Z,68.47
2022-12-18T20:58:39.046Z,74.90
2022-12-18T21:01:07.778Z,75.07
2022-12-18T21:03:34.499Z,78.37
2022-12-18T21:06:01.166Z,77.10
2022-12-18T21:08:28.337Z,81.10
2022-12-18T21:10:55.515Z,81.32
2022-12-18T21:13:23.727Z,86.20
2022-12-18T21:16:03.155Z,85.72
2022-12-18T21:18:37.840Z,84.35
2022-12-18T21:21:09.110Z,81.32
2022-12-18T21:23:40.140Z,80.78
2022-12-18T21:26:17.996Z,80.30
2022-12-18T21:28:52.145Z,79.25
2022-12-18T21:31:31.769Z,77.43
2022-12-18T21:37:21.428Z,71.65
2022-12-18T21:40:21.162Z,70.53
2022-12-18T21:42:56.267Z,69.28
2022-12-18T21:48:11.635Z,68.63
2022-12-18T21:50:48.092Z,67.80
2022-12-18T21:53:21.402Z,75.32
2022-12-18T21:56:04.417Z,73.97
2022-12-18T21:58:38.349Z,78.07
2022-12-18T22:01:30.514Z,64.07
2022-12-18T22:04:30.255Z,68.20
2022-12-18T22:07:12.692Z,64.53
2022-12-18T22:09:44.185Z,62.97
2022-12-18T22:12:16.066Z,62.58
2022-12-18T22:14:44.965Z,61.63
2022-12-18T22:17:14.397Z,68.22
2022-12-18T22:19:44.968Z,65.70
2022-12-18T22:22:21.013Z,64.63
2022-12-18T22:24:47.690Z,63.15
2022-12-18T22:27:14.399Z,61.40
2022-12-18T22:29:41.088Z,62.58
2022-12-18T22:32:09.786Z,65.45
2022-12-18T22:34:38.628Z,65.15
2022-12-18T22:37:06.651Z,64.15
2022-12-18T22:39:33.422Z,62.70
2022-12-18T22:42:00.305Z,64.40
2022-12-18T22:44:27.096Z,68.53
2022-12-18T22:46:56.312Z,69.57
2022-12-18T22:52:15.341Z,65.00
2022-12-18T22:54:48.543Z,66.93
2022-12-18T23:00:09.301Z,63.60
2022-12-18T23:05:31.091Z,63.40
2022-12-18T23:08:34.642Z,63.10
2022-12-18T23:14:22.553Z,61.35
2022-12-18T23:17:17.428Z,60.45
2022-12-18T23:20:15.819Z,60.60
2022-12-18T23:22:47.252Z,59.35
2022-12-18T23:25:18.329Z,59.92
2022-12-18T23:27:50.796Z,59.72
2022-12-18T23:30:43.642Z,59.33
2022-12-18T23:33:10.320Z,61.22
2022-12-18T23:38:44.572Z,60.88
2022-12-18T23:41:24.415Z,62.00
2022-12-18T23:44:04.491Z,65.85
2022-12-18T23:47:31.934Z,65.78
2022-12-18T23:49:43.647Z,66.00
2022-12-18T23:52:24.056Z,64.20
2022-12-18T23:55:20.336Z,67.47
2022-12-18T23:58:01.158Z,66.18
